Paul Brotzge — WDD4377 — position and weather

sailwx.info

Track history (hours):
 
Tides and Currents Weather Stations Pressure Air Temp Water Temp Dewpoint Dewpoint Depression Visibility Wind Speed Wind Dir Waves Ship Positions

Paul Brotzge

Owner: American Commercial Lines LLC, Jeffersonville, IN. More information available from US FCC via Universal Licensing System and Coast Guard Vessel Documentation Center.

Last reported at 2017-Jun-20 17:12 UTC. Time now 2017-Jun-24 00:11 UTC.
Position N 40°46' W 091°06'.

Length 44 m; draft 2.9 m.

Type: Tow > 200 m length. MMSI: 367143920.

Date/timePositionNaut miles runAvg speedWind from/ knotsBaromVisibWave heightAir tempDewpointWater temp
2017-Jun-20 17:12N 40°46' W 091°06'1 7.1
2017-Jun-20 17:00N 40°47' W 091°06'2 4.0
2017-Jun-20 16:30N 40°49' W 091°06'3 5.7
2017-Jun-20 16:00N 40°51' W 091°03'2 4.6
2017-Jun-20 15:30N 40°53' W 091°01'0 0.0
2017-Jun-20 15:00N 40°53' W 091°01'0 0.2
2017-Jun-20 14:30N 40°53' W 091°01'0 0.4
2017-Jun-20 13:30N 40°53' W 091°01'0 0.0
2017-Jun-20 13:00N 40°53' W 091°01'0 0.0
2017-Jun-20 12:29N 40°53' W 091°01'0 0.0
2017-Jun-20 12:00N 40°53' W 091°01'0 0.0
2017-Jun-20 11:30N 40°53' W 091°01'0 0.0
2017-Jun-20 11:00N 40°53' W 091°01'0 0.0
2017-Jun-20 10:30N 40°53' W 091°01'0 0.0
2017-Jun-20 10:00N 40°53' W 091°01'0 0.0
2017-Jun-20 09:30N 40°53' W 091°01'0 0.0
2017-Jun-20 09:00N 40°53' W 091°01'0 0.0
2017-Jun-20 08:30N 40°53' W 091°01'0 0.0
2017-Jun-20 08:00N 40°53' W 091°01'0 0.0
2017-Jun-20 07:30N 40°53' W 091°01'0 0.0
2017-Jun-20 07:00N 40°53' W 091°01'1 1.6
2017-Jun-20 06:30N 40°54' W 091°01'3 5.5
2017-Jun-20 06:00N 40°56' W 090°58'3 5.6
2017-Jun-20 05:30N 40°58' W 090°57'3 5.8
2017-Jun-20 05:00N 41°01' W 090°57'3 6.4
2017-Jun-20 04:30N 41°04' W 090°57'3 5.6
2017-Jun-20 04:00N 41°07' W 090°58'3 5.7
2017-Jun-20 03:28N 41°10' W 090°60'  
Track history (hours):
 
Tides and Currents Weather Stations Pressure Air Temp Water Temp Dewpoint Dewpoint Depression Visibility Wind Speed Wind Dir Waves Ship Positions

Paul Brotzge

Owner: American Commercial Lines LLC, Jeffersonville, IN. More information available from US FCC via Universal Licensing System and Coast Guard Vessel Documentation Center.

Last reported at 2017-Jun-20 17:12 UTC. Time now 2017-Jun-24 00:11 UTC.
Position N 40°46' W 091°06'.

Length 44 m; draft 2.9 m.

Type: Tow > 200 m length. MMSI: 367143920.

Date/timePositionNaut miles runAvg speedWind from/ knotsBaromVisibWave heightAir tempDewpointWater temp
2017-Jun-20 17:12N 40°46' W 091°06'1 7.1
2017-Jun-20 17:00N 40°47' W 091°06'2 4.0
2017-Jun-20 16:30N 40°49' W 091°06'3 5.7
2017-Jun-20 16:00N 40°51' W 091°03'2 4.6
2017-Jun-20 15:30N 40°53' W 091°01'0 0.0
2017-Jun-20 15:00N 40°53' W 091°01'0 0.2
2017-Jun-20 14:30N 40°53' W 091°01'0 0.4
2017-Jun-20 13:30N 40°53' W 091°01'0 0.0
2017-Jun-20 13:00N 40°53' W 091°01'0 0.0
2017-Jun-20 12:29N 40°53' W 091°01'0 0.0
2017-Jun-20 12:00N 40°53' W 091°01'0 0.0
2017-Jun-20 11:30N 40°53' W 091°01'0 0.0
2017-Jun-20 11:00N 40°53' W 091°01'0 0.0
2017-Jun-20 10:30N 40°53' W 091°01'0 0.0
2017-Jun-20 10:00N 40°53' W 091°01'0 0.0
2017-Jun-20 09:30N 40°53' W 091°01'0 0.0
2017-Jun-20 09:00N 40°53' W 091°01'0 0.0
2017-Jun-20 08:30N 40°53' W 091°01'0 0.0
2017-Jun-20 08:00N 40°53' W 091°01'0 0.0
2017-Jun-20 07:30N 40°53' W 091°01'0 0.0
2017-Jun-20 07:00N 40°53' W 091°01'1 1.6
2017-Jun-20 06:30N 40°54' W 091°01'3 5.5
2017-Jun-20 06:00N 40°56' W 090°58'3 5.6
2017-Jun-20 05:30N 40°58' W 090°57'3 5.8
2017-Jun-20 05:00N 41°01' W 090°57'3 6.4
2017-Jun-20 04:30N 41°04' W 090°57'3 5.6
2017-Jun-20 04:00N 41°07' W 090°58'3 5.7
2017-Jun-20 03:28N 41°10' W 090°60'  

Dump ship's entire track history